sensor_id;sensor_type;location;lat;lon;timestamp;pressure;altitude;pressure_sealevel;temperature;humidity
53719;BME280;39616;48.872;9.390;2023-07-31T00:00:36;98391.53;;;15.53;77.54
53719;BME280;39616;48.872;9.390;2023-07-31T00:03:06;98381.59;;;15.48;77.85
53719;BME280;39616;48.872;9.390;2023-07-31T00:05:36;98380.66;;;15.44;78.23
53719;BME280;39616;48.872;9.390;2023-07-31T00:08:07;98385.31;;;15.43;77.86
53719;BME280;39616;48.872;9.390;2023-07-31T00:10:37;98384.19;;;15.44;77.33
53719;BME280;39616;48.872;9.390;2023-07-31T00:13:07;98385.31;;;15.35;78.70
53719;BME280;39616;48.872;9.390;2023-07-31T00:15:37;98382.28;;;15.28;78.99
53719;BME280;39616;48.872;9.390;2023-07-31T00:18:08;98380.03;;;15.30;78.35
53719;BME280;39616;48.872;9.390;2023-07-31T00:20:38;98376.22;;;15.22;79.47
53719;BME280;39616;48.872;9.390;2023-07-31T00:23:08;98381.41;;;15.06;80.86
53719;BME280;39616;48.872;9.390;2023-07-31T00:25:39;98380.13;;;14.95;81.94
53719;BME280;39616;48.872;9.390;2023-07-31T00:28:09;98380.47;;;14.85;83.21
53719;BME280;39616;48.872;9.390;2023-07-31T00:30:40;98387.53;;;14.77;83.83
53719;BME280;39616;48.872;9.390;2023-07-31T00:33:10;98378.53;;;14.68;84.48
53719;BME280;39616;48.872;9.390;2023-07-31T00:35:40;98375.66;;;14.64;85.78
53719;BME280;39616;48.872;9.390;2023-07-31T00:38:11;98376.28;;;14.61;85.25
53719;BME280;39616;48.872;9.390;2023-07-31T00:40:41;98384.47;;;14.61;85.47
53719;BME280;39616;48.872;9.390;2023-07-31T00:43:11;98380.63;;;14.54;86.53
53719;BME280;39616;48.872;9.390;2023-07-31T00:45:42;98391.69;;;14.40;88.72
53719;BME280;39616;48.872;9.390;2023-07-31T00:48:12;98384.75;;;14.34;90.90
53719;BME280;39616;48.872;9.390;2023-07-31T00:50:43;98391.47;;;14.27;91.53
53719;BME280;39616;48.872;9.390;2023-07-31T00:53:13;98393.75;;;14.25;90.62
53719;BME280;39616;48.872;9.390;2023-07-31T00:55:44;98385.72;;;14.29;90.63
53719;BME280;39616;48.872;9.390;2023-07-31T00:58:15;98385.06;;;14.32;90.40
53719;BME280;39616;48.872;9.390;2023-07-31T01:00:45;98391.50;;;14.36;89.02
53719;BME280;39616;48.872;9.390;2023-07-31T01:03:16;98381.22;;;14.42;88.55
53719;BME280;39616;48.872;9.390;2023-07-31T01:11:18;98378.81;;;14.49;88.42
53719;BME280;39616;48.872;9.390;2023-07-31T01:13:49;98386.53;;;14.47;87.64
53719;BME280;39616;48.872;9.390;2023-07-31T01:16:20;98383.00;;;14.46;88.58
53719;BME280;39616;48.872;9.390;2023-07-31T01:18:50;98375.78;;;14.42;89.14
53719;BME280;39616;48.872;9.390;2023-07-31T01:21:35;98377.38;;;14.43;88.46
53719;BME280;39616;48.872;9.390;2023-07-31T01:24:29;98370.66;;;14.40;89.34
53719;BME280;39616;48.872;9.390;2023-07-31T01:27:10;98366.00;;;14.41;88.69
53719;BME280;39616;48.872;9.390;2023-07-31T01:29:55;98362.63;;;14.44;88.37
53719;BME280;39616;48.872;9.390;2023-07-31T01:32:28;98362.63;;;14.44;87.84
53719;BME280;39616;48.872;9.390;2023-07-31T01:34:59;98356.69;;;14.42;87.79
53719;BME280;39616;48.872;9.390;2023-07-31T01:37:29;98360.53;;;14.41;88.29
53719;BME280;39616;48.872;9.390;2023-07-31T01:40:00;98346.75;;;14.37;88.94
53719;BME280;39616;48.872;9.390;2023-07-31T01:42:31;98337.25;;;14.35;90.11
53719;BME280;39616;48.872;9.390;2023-07-31T01:45:01;98335.97;;;14.32;89.72
53719;BME280;39616;48.872;9.390;2023-07-31T01:47:31;98340.47;;;14.37;89.99
53719;BME280;39616;48.872;9.390;2023-07-31T01:50:01;98334.69;;;14.38;89.53
53719;BME280;39616;48.872;9.390;2023-07-31T01:52:32;98334.88;;;14.33;89.94
53719;BME280;39616;48.872;9.390;2023-07-31T01:55:02;98337.59;;;14.33;90.77
53719;BME280;39616;48.872;9.390;2023-07-31T01:57:32;98342.25;;;14.33;90.91
53719;BME280;39616;48.872;9.390;2023-07-31T02:00:04;98335.16;;;14.32;91.13
53719;BME280;39616;48.872;9.390;2023-07-31T02:02:35;98339.69;;;14.36;90.64
53719;BME280;39616;48.872;9.390;2023-07-31T02:05:06;98334.06;;;14.41;90.36
53719;BME280;39616;48.872;9.390;2023-07-31T02:07:36;98329.09;;;14.43;89.94
53719;BME280;39616;48.872;9.390;2023-07-31T02:10:07;98326.50;;;14.47;89.12
53719;BME280;39616;48.872;9.390;2023-07-31T02:12:37;98322.84;;;14.52;89.65
53719;BME280;39616;48.872;9.390;2023-07-31T02:15:08;98328.31;;;14.52;88.98
53719;BME280;39616;48.872;9.390;2023-07-31T02:17:38;98322.06;;;14.51;89.38
53719;BME280;39616;48.872;9.390;2023-07-31T02:20:09;98311.75;;;14.48;88.80
53719;BME280;39616;48.872;9.390;2023-07-31T02:22:39;98315.59;;;14.47;88.08
53719;BME280;39616;48.872;9.390;2023-07-31T02:25:10;98304.22;;;14.45;88.22
53719;BME280;39616;48.872;9.390;2023-07-31T02:27:40;98308.38;;;14.42;88.83
53719;BME280;39616;48.872;9.390;2023-07-31T02:30:11;98312.72;;;14.43;88.36
53719;BME280;39616;48.872;9.390;2023-07-31T02:32:41;98310.63;;;14.40;89.35
53719;BME280;39616;48.872;9.390;2023-07-31T02:35:11;98306.13;;;14.36;89.74
53719;BME280;39616;48.872;9.390;2023-07-31T02:37:45;98307.59;;;14.33;89.89
53719;BME280;39616;48.872;9.390;2023-07-31T02:40:15;98304.06;;;14.33;90.09
53719;BME280;39616;48.872;9.390;2023-07-31T02:42:46;98303.22;;;14.32;89.90
53719;BME280;39616;48.872;9.390;2023-07-31T02:45:16;98301.00;;;14.34;90.45
53719;BME280;39616;48.872;9.390;2023-07-31T02:47:46;98298.44;;;14.38;90.31
53719;BME280;39616;48.872;9.390;2023-07-31T02:50:16;98291.06;;;14.38;90.30
53719;BME280;39616;48.872;9.390;2023-07-31T02:52:47;98288.66;;;14.37;89.85
53719;BME280;39616;48.872;9.390;2023-07-31T02:55:17;98282.69;;;14.35;90.26
53719;BME280;39616;48.872;9.390;2023-07-31T02:57:47;98278.38;;;14.34;90.34
53719;BME280;39616;48.872;9.390;2023-07-31T03:00:18;98274.38;;;14.31;90.07
53719;BME280;39616;48.872;9.390;2023-07-31T03:02:48;98268.28;;;14.34;90.29
53719;BME280;39616;48.872;9.390;2023-07-31T03:05:19;98280.78;;;14.35;89.34
53719;BME280;39616;48.872;9.390;2023-07-31T03:07:49;98274.53;;;14.35;89.65
53719;BME280;39616;48.872;9.390;2023-07-31T03:10:19;98275.66;;;14.34;89.49
53719;BME280;39616;48.872;9.390;2023-07-31T03:12:50;98270.03;;;14.39;88.41
53719;BME280;39616;48.872;9.390;2023-07-31T03:15:20;98277.91;;;14.40;88.84
53719;BME280;39616;48.872;9.390;2023-07-31T03:17:50;98274.84;;;14.42;88.66
53719;BME280;39616;48.872;9.390;2023-07-31T03:20:21;98276.13;;;14.44;87.10
53719;BME280;39616;48.872;9.390;2023-07-31T03:22:51;98287.19;;;14.48;86.87
53719;BME280;39616;48.872;9.390;2023-07-31T03:25:21;98289.94;;;14.48;86.85
53719;BME280;39616;48.872;9.390;2023-07-31T03:27:51;98291.22;;;14.50;86.14
53719;BME280;39616;48.872;9.390;2023-07-31T03:30:22;98284.78;;;14.46;86.35
53719;BME280;39616;48.872;9.390;2023-07-31T03:32:52;98287.03;;;14.44;86.76
53719;BME280;39616;48.872;9.390;2023-07-31T03:35:22;98272.91;;;14.42;86.96
53719;BME280;39616;48.872;9.390;2023-07-31T03:37:53;98277.09;;;14.40;87.41
53719;BME280;39616;48.872;9.390;2023-07-31T03:40:23;98287.03;;;14.36;87.08
53719;BME280;39616;48.872;9.390;2023-07-31T03:42:53;98284.78;;;14.38;87.28
53719;BME280;39616;48.872;9.390;2023-07-31T03:45:24;98291.38;;;14.37;87.09
53719;BME280;39616;48.872;9.390;2023-07-31T03:47:54;98295.22;;;14.36;87.20
53719;BME280;39616;48.872;9.390;2023-07-31T03:50:24;98287.38;;;14.34;86.91
53719;BME280;39616;48.872;9.390;2023-07-31T03:52:55;98287.03;;;14.36;87.51
53719;BME280;39616;48.872;9.390;2023-07-31T03:55:25;98284.63;;;14.43;85.89
53719;BME280;39616;48.872;9.390;2023-07-31T03:57:55;98295.53;;;14.43;86.02
53719;BME280;39616;48.872;9.390;2023-07-31T04:00:26;98291.84;;;14.39;86.56
53719;BME280;39616;48.872;9.390;2023-07-31T04:02:57;98294.09;;;14.37;87.13
53719;BME280;39616;48.872;9.390;2023-07-31T04:05:30;98291.38;;;14.37;86.98
53719;BME280;39616;48.872;9.390;2023-07-31T04:08:00;98288.50;;;14.33;87.27
53719;BME280;39616;48.872;9.390;2023-07-31T04:10:30;98291.69;;;14.35;87.01
53719;BME280;39616;48.872;9.390;2023-07-31T04:13:03;98289.75;;;14.36;86.77
53719;BME280;39616;48.872;9.390;2023-07-31T04:15:33;98288.81;;;14.40;86.85
53719;BME280;39616;48.872;9.390;2023-07-31T04:18:04;98280.78;;;14.44;87.31
53719;BME280;39616;48.872;9.390;2023-07-31T04:20:35;98286.25;;;14.44;87.88
53719;BME280;39616;48.872;9.390;2023-07-31T04:23:05;98282.03;;;14.46;86.63
53719;BME280;39616;48.872;9.390;2023-07-31T04:25:36;98275.69;;;14.51;86.21
53719;BME280;39616;48.872;9.390;2023-07-31T04:28:06;98268.09;;;14.57;87.50
53719;BME280;39616;48.872;9.390;2023-07-31T04:30:37;98269.41;;;14.59;86.41
53719;BME280;39616;48.872;9.390;2023-07-31T04:33:07;98272.28;;;14.63;85.57
53719;BME280;39616;48.872;9.390;2023-07-31T04:35:38;98281.09;;;14.68;85.04
53719;BME280;39616;48.872;9.390;2023-07-31T04:38:08;98266.78;;;14.71;85.20
53719;BME280;39616;48.872;9.390;2023-07-31T04:40:38;98265.81;;;14.76;84.63
53719;BME280;39616;48.872;9.390;2023-07-31T04:43:09;98265.81;;;14.85;84.17
53719;BME280;39616;48.872;9.390;2023-07-31T04:45:39;98258.38;;;14.94;85.33
53719;BME280;39616;48.872;9.390;2023-07-31T04:48:09;98268.78;;;15.01;84.08
53719;BME280;39616;48.872;9.390;2023-07-31T04:50:40;98271.50;;;15.09;84.22
53719;BME280;39616;48.872;9.390;2023-07-31T04:53:10;98271.13;;;15.19;83.75
53719;BME280;39616;48.872;9.390;2023-07-31T04:55:40;98267.09;;;15.26;82.31
53719;BME280;39616;48.872;9.390;2023-07-31T04:58:11;98275.59;;;15.33;82.03
53719;BME280;39616;48.872;9.390;2023-07-31T05:00:41;98281.19;;;15.36;82.85
53719;BME280;39616;48.872;9.390;2023-07-31T05:03:12;98269.75;;;15.43;81.81
53719;BME280;39616;48.872;9.390;2023-07-31T05:05:42;98263.28;;;15.48;80.86
53719;BME280;39616;48.872;9.390;2023-07-31T05:08:12;98259.38;;;15.57;81.04
53719;BME280;39616;48.872;9.390;2023-07-31T05:10:43;98259.03;;;15.67;79.92
53719;BME280;39616;48.872;9.390;2023-07-31T05:13:13;98261.09;;;15.70;81.04
53719;BME280;39616;48.872;9.390;2023-07-31T05:15:44;98257.50;;;15.79;80.39
53719;BME280;39616;48.872;9.390;2023-07-31T05:18:14;98259.38;;;15.87;79.69
53719;BME280;39616;48.872;9.390;2023-07-31T05:20:44;98260.63;;;15.89;79.04
53719;BME280;39616;48.872;9.390;2023-07-31T05:23:14;98257.59;;;15.91;78.91
53719;BME280;39616;48.872;9.390;2023-07-31T05:25:45;98254.50;;;15.92;79.23
53719;BME280;39616;48.872;9.390;2023-07-31T05:28:15;98249.09;;;16.05;78.65
53719;BME280;39616;48.872;9.390;2023-07-31T05:30:45;98246.97;;;16.10;78.41
53719;BME280;39616;48.872;9.390;2023-07-31T05:33:16;98257.56;;;16.12;78.06
53719;BME280;39616;48.872;9.390;2023-07-31T05:35:46;98249.19;;;16.17;77.88
53719;BME280;39616;48.872;9.390;2023-07-31T05:38:16;98254.44;;;16.22;77.71
53719;BME280;39616;48.872;9.390;2023-07-31T05:40:47;98263.25;;;16.28;77.63
53719;BME280;39616;48.872;9.390;2023-07-31T05:43:17;98259.91;;;16.43;76.65
53719;BME280;39616;48.872;9.390;2023-07-31T05:45:47;98250.56;;;16.56;75.70
53719;BME280;39616;48.872;9.390;2023-07-31T05:48:18;98244.34;;;16.68;76.11
53719;BME280;39616;48.872;9.390;2023-07-31T05:50:48;98250.31;;;16.82;74.44
53719;BME280;39616;48.872;9.390;2023-07-31T05:53:18;98255.28;;;17.01;75.63
53719;BME280;39616;48.872;9.390;2023-07-31T05:55:49;98249.94;;;17.17;73.69
53719;BME280;39616;48.872;9.390;2023-07-31T05:58:19;98249.03;;;17.25;72.59
53719;BME280;39616;48.872;9.390;2023-07-31T06:00:49;98247.53;;;17.40;73.53
53719;BME280;39616;48.872;9.390;2023-07-31T06:03:20;98240.34;;;17.48;72.77
53719;BME280;39616;48.872;9.390;2023-07-31T06:05:50;98242.28;;;17.47;72.21
53719;BME280;39616;48.872;9.390;2023-07-31T06:08:20;98238.19;;;17.53;71.48
53719;BME280;39616;48.872;9.390;2023-07-31T06:10:51;98239.53;;;17.47;72.99
53719;BME280;39616;48.872;9.390;2023-07-31T06:13:21;98232.44;;;17.58;71.36
53719;BME280;39616;48.872;9.390;2023-07-31T06:15:51;98237.47;;;17.81;70.86
53719;BME280;39616;48.872;9.390;2023-07-31T06:18:21;98239.34;;;18.05;70.90
53719;BME280;39616;48.872;9.390;2023-07-31T06:20:52;98241.31;;;18.32;69.83
53719;BME280;39616;48.872;9.390;2023-07-31T06:23:23;98246.75;;;18.45;68.71
53719;BME280;39616;48.872;9.390;2023-07-31T06:25:53;98246.94;;;18.52;68.67
53719;BME280;39616;48.872;9.390;2023-07-31T06:28:28;98241.31;;;18.61;68.83
53719;BME280;39616;48.872;9.390;2023-07-31T06:30:59;98243.09;;;18.69;68.73
53719;BME280;39616;48.872;9.390;2023-07-31T06:33:29;98238.88;;;18.87;67.52
53719;BME280;39616;48.872;9.390;2023-07-31T06:36:00;98243.97;;;19.01;67.07
53719;BME280;39616;48.872;9.390;2023-07-31T06:38:30;98238.56;;;19.04;66.77
53719;BME280;39616;48.872;9.390;2023-07-31T06:41:00;98245.81;;;19.13;66.34
53719;BME280;39616;48.872;9.390;2023-07-31T06:43:30;98251.94;;;19.38;66.40
53719;BME280;39616;48.872;9.390;2023-07-31T06:46:05;98250.59;;;19.63;65.58
53719;BME280;39616;48.872;9.390;2023-07-31T06:48:36;98248.66;;;19.83;65.11
53719;BME280;39616;48.872;9.390;2023-07-31T06:51:07;98244.66;;;19.96;63.44
53719;BME280;39616;48.872;9.390;2023-07-31T06:53:38;98248.13;;;19.93;63.69
53719;BME280;39616;48.872;9.390;2023-07-31T06:56:08;98253.63;;;19.93;63.72
53719;BME280;39616;48.872;9.390;2023-07-31T06:58:39;98257.25;;;19.97;64.55
53719;BME280;39616;48.872;9.390;2023-07-31T07:01:09;98251.28;;;19.95;62.96
53719;BME280;39616;48.872;9.390;2023-07-31T07:03:40;98253.63;;;19.93;62.91
53719;BME280;39616;48.872;9.390;2023-07-31T07:06:10;98248.84;;;19.90;62.29
53719;BME280;39616;48.872;9.390;2023-07-31T07:08:40;98252.47;;;19.94;62.42
53719;BME280;39616;48.872;9.390;2023-07-31T07:11:11;98247.72;;;20.30;62.60
53719;BME280;39616;48.872;9.390;2023-07-31T07:13:41;98249.16;;;20.63;60.05
53719;BME280;39616;48.872;9.390;2023-07-31T07:16:11;98248.63;;;20.77;60.24
53719;BME280;39616;48.872;9.390;2023-07-31T07:18:41;98250.78;;;20.87;60.73
53719;BME280;39616;48.872;9.390;2023-07-31T07:21:12;98247.47;;;21.01;60.08
53719;BME280;39616;48.872;9.390;2023-07-31T07:23:45;98243.16;;;20.80;58.95
53719;BME280;39616;48.872;9.390;2023-07-31T07:26:16;98239.66;;;21.03;58.30
53719;BME280;39616;48.872;9.390;2023-07-31T07:28:46;98233.28;;;21.44;56.83
53719;BME280;39616;48.872;9.390;2023-07-31T07:31:16;98231.75;;;21.47;56.71
53719;BME280;39616;48.872;9.390;2023-07-31T07:33:46;98237.25;;;21.47;57.13
53719;BME280;39616;48.872;9.390;2023-07-31T07:36:17;98227.44;;;21.27;55.10
53719;BME280;39616;48.872;9.390;2023-07-31T07:38:47;98226.09;;;21.17;57.12
53719;BME280;39616;48.872;9.390;2023-07-31T07:41:17;98232.53;;;21.25;57.73
53719;BME280;39616;48.872;9.390;2023-07-31T07:43:48;98228.91;;;21.20;58.36
53719;BME280;39616;48.872;9.390;2023-07-31T07:46:18;98239.19;;;21.23;56.71
53719;BME280;39616;48.872;9.390;2023-07-31T07:48:48;98230.00;;;21.39;56.64
53719;BME280;39616;48.872;9.390;2023-07-31T07:51:18;98228.16;;;21.46;55.99
53719;BME280;39616;48.872;9.390;2023-07-31T07:53:49;98232.81;;;21.42;56.55
53719;BME280;39616;48.872;9.390;2023-07-31T07:56:19;98229.59;;;21.63;55.34
53719;BME280;39616;48.872;9.390;2023-07-31T07:58:50;98231.34;;;21.75;55.25
53719;BME280;39616;48.872;9.390;2023-07-31T08:01:20;98221.28;;;21.90;55.67
53719;BME280;39616;48.872;9.390;2023-07-31T08:03:50;98223.16;;;22.12;55.89
53719;BME280;39616;48.872;9.390;2023-07-31T08:06:21;98227.06;;;22.08;53.89
53719;BME280;39616;48.872;9.390;2023-07-31T08:08:52;98225.25;;;22.19;52.81
53719;BME280;39616;48.872;9.390;2023-07-31T08:11:23;98226.75;;;22.13;54.01
53719;BME280;39616;48.872;9.390;2023-07-31T08:13:53;98219.16;;;21.76;54.70
53719;BME280;39616;48.872;9.390;2023-07-31T08:16:23;98203.91;;;22.16;52.84
53719;BME280;39616;48.872;9.390;2023-07-31T08:18:54;98204.03;;;22.64;51.71
53719;BME280;39616;48.872;9.390;2023-07-31T08:21:24;98200.75;;;23.33;53.03
53719;BME280;39616;48.872;9.390;2023-07-31T08:23:54;98215.88;;;24.08;50.23
53719;BME280;39616;48.872;9.390;2023-07-31T08:26:25;98212.00;;;24.34;49.57
53719;BME280;39616;48.872;9.390;2023-07-31T08:28:55;98207.81;;;24.98;47.66
53719;BME280;39616;48.872;9.390;2023-07-31T08:31:25;98211.78;;;24.97;47.98
53719;BME280;39616;48.872;9.390;2023-07-31T08:33:57;98209.34;;;24.77;48.54
53719;BME280;39616;48.872;9.390;2023-07-31T08:36:27;98198.69;;;25.08;48.27
53719;BME280;39616;48.872;9.390;2023-07-31T08:38:57;98197.91;;;25.47;47.50
53719;BME280;39616;48.872;9.390;2023-07-31T08:41:27;98187.97;;;25.71;45.30
53719;BME280;39616;48.872;9.390;2023-07-31T08:43:58;98195.91;;;24.97;46.70
53719;BME280;39616;48.872;9.390;2023-07-31T08:46:30;98185.22;;;25.46;46.90
53719;BME280;39616;48.872;9.390;2023-07-31T08:49:04;98178.84;;;25.70;44.46
53719;BME280;39616;48.872;9.390;2023-07-31T08:51:36;98178.81;;;25.85;45.08
53719;BME280;39616;48.872;9.390;2023-07-31T08:54:07;98182.84;;;25.01;47.01
53719;BME280;39616;48.872;9.390;2023-07-31T08:56:37;98186.00;;;24.93;46.68
53719;BME280;39616;48.872;9.390;2023-07-31T08:59:08;98181.66;;;25.42;47.64
53719;BME280;39616;48.872;9.390;2023-07-31T09:01:43;98189.09;;;25.88;45.32
53719;BME280;39616;48.872;9.390;2023-07-31T09:04:18;98193.03;;;26.08;46.12
53719;BME280;39616;48.872;9.390;2023-07-31T09:06:53;98192.78;;;25.35;45.79
53719;BME280;39616;48.872;9.390;2023-07-31T09:09:27;98191.09;;;24.58;46.93
53719;BME280;39616;48.872;9.390;2023-07-31T09:11:58;98166.56;;;25.53;44.86
53719;BME280;39616;48.872;9.390;2023-07-31T09:14:28;98171.59;;;26.01;45.23
53719;BME280;39616;48.872;9.390;2023-07-31T09:16:59;98154.97;;;25.94;44.51
53719;BME280;39616;48.872;9.390;2023-07-31T09:19:34;98166.91;;;25.84;44.30
53719;BME280;39616;48.872;9.390;2023-07-31T09:22:07;98177.69;;;24.75;45.76
53719;BME280;39616;48.872;9.390;2023-07-31T09:24:37;98170.97;;;25.08;46.17
53719;BME280;39616;48.872;9.390;2023-07-31T09:27:07;98178.06;;;24.80;47.58
53719;BME280;39616;48.872;9.390;2023-07-31T09:29:38;98176.50;;;24.97;46.96
53719;BME280;39616;48.872;9.390;2023-07-31T09:32:15;98172.44;;;24.41;48.14
53719;BME280;39616;48.872;9.390;2023-07-31T09:34:46;98178.72;;;24.24;48.37
53719;BME280;39616;48.872;9.390;2023-07-31T09:37:16;98173.50;;;24.08;48.89
53719;BME280;39616;48.872;9.390;2023-07-31T09:39:48;98164.31;;;23.79;48.94
53719;BME280;39616;48.872;9.390;2023-07-31T09:42:26;98168.25;;;23.81;50.38
53719;BME280;39616;48.872;9.390;2023-07-31T09:45:07;98163.88;;;23.18;50.80
53719;BME280;39616;48.872;9.390;2023-07-31T09:47:38;98154.34;;;23.71;49.76
53719;BME280;39616;48.872;9.390;2023-07-31T09:50:09;98152.09;;;23.94;49.53
53719;BME280;39616;48.872;9.390;2023-07-31T09:52:39;98140.31;;;24.19;48.99
53719;BME280;39616;48.872;9.390;2023-07-31T09:55:10;98128.13;;;24.45;47.87
53719;BME280;39616;48.872;9.390;2023-07-31T09:57:41;98130.34;;;23.96;49.42
53719;BME280;39616;48.872;9.390;2023-07-31T10:00:17;98130.13;;;23.53;49.78
53719;BME280;39616;48.872;9.390;2023-07-31T10:02:48;98126.09;;;24.24;50.10
53719;BME280;39616;48.872;9.390;2023-07-31T10:05:19;98124.44;;;23.98;48.79
53719;BME280;39616;48.872;9.390;2023-07-31T10:07:54;98115.78;;;24.17;48.81
53719;BME280;39616;48.872;9.390;2023-07-31T10:10:25;98114.28;;;24.77;47.65
53719;BME280;39616;48.872;9.390;2023-07-31T10:12:56;98115.09;;;24.81;47.68
53719;BME280;39616;48.872;9.390;2023-07-31T10:15:28;98101.22;;;25.06;47.57
53719;BME280;39616;48.872;9.390;2023-07-31T10:18:00;98107.53;;;25.32;47.12
53719;BME280;39616;48.872;9.390;2023-07-31T10:20:31;98109.56;;;24.56;47.67
53719;BME280;39616;48.872;9.390;2023-07-31T10:23:02;98103.19;;;24.48;46.98
53719;BME280;39616;48.872;9.390;2023-07-31T10:25:34;98103.94;;;25.49;45.90
53719;BME280;39616;48.872;9.390;2023-07-31T10:28:04;98107.16;;;25.01;47.09
53719;BME280;39616;48.872;9.390;2023-07-31T10:30:35;98107.56;;;24.89;46.29
53719;BME280;39616;48.872;9.390;2023-07-31T10:33:08;98103.59;;;25.08;45.84
53719;BME280;39616;48.872;9.390;2023-07-31T10:35:39;98088.94;;;24.96;47.93
53719;BME280;39616;48.872;9.390;2023-07-31T10:38:11;98094.38;;;25.61;45.95
53719;BME280;39616;48.872;9.390;2023-07-31T10:40:44;98090.69;;;25.96;46.93
53719;BME280;39616;48.872;9.390;2023-07-31T10:43:25;98086.66;;;26.70;45.37
53719;BME280;39616;48.872;9.390;2023-07-31T10:45:57;98073.94;;;27.18;43.92
53719;BME280;39616;48.872;9.390;2023-07-31T10:48:33;98072.91;;;26.97;43.25
53719;BME280;39616;48.872;9.390;2023-07-31T10:51:08;98084.22;;;26.76;42.98
53719;BME280;39616;48.872;9.390;2023-07-31T10:53:39;98079.34;;;26.87;43.68
53719;BME280;39616;48.872;9.390;2023-07-31T10:56:10;98086.97;;;26.80;42.04
53719;BME280;39616;48.872;9.390;2023-07-31T10:59:00;98082.38;;;26.59;44.80
53719;BME280;39616;48.872;9.390;2023-07-31T11:01:54;98085.47;;;26.05;44.96
53719;BME280;39616;48.872;9.390;2023-07-31T11:04:27;98093.41;;;25.99;45.68
53719;BME280;39616;48.872;9.390;2023-07-31T11:07:01;98089.06;;;26.02;46.21
53719;BME280;39616;48.872;9.390;2023-07-31T11:09:33;98082.16;;;25.29;44.98
53719;BME280;39616;48.872;9.390;2023-07-31T11:12:03;98067.50;;;26.20;44.51
53719;BME280;39616;48.872;9.390;2023-07-31T11:14:34;98060.28;;;26.86;44.95
53719;BME280;39616;48.872;9.390;2023-07-31T11:17:07;98064.09;;;27.03;45.47
53719;BME280;39616;48.872;9.390;2023-07-31T11:19:38;98060.91;;;26.00;45.06
53719;BME280;39616;48.872;9.390;2023-07-31T11:22:08;98062.69;;;26.84;43.64
53719;BME280;39616;48.872;9.390;2023-07-31T11:24:39;98066.34;;;26.18;44.66
53719;BME280;39616;48.872;9.390;2023-07-31T11:27:09;98069.34;;;25.82;45.76
53719;BME280;39616;48.872;9.390;2023-07-31T11:29:39;98061.63;;;24.66;46.63
53719;BME280;39616;48.872;9.390;2023-07-31T11:32:16;98055.59;;;25.36;46.31
53719;BME280;39616;48.872;9.390;2023-07-31T11:34:53;98046.50;;;25.21;46.45
53719;BME280;39616;48.872;9.390;2023-07-31T11:37:24;98056.84;;;24.77;47.42
53719;BME280;39616;48.872;9.390;2023-07-31T11:40:08;98054.91;;;24.67;46.88
53719;BME280;39616;48.872;9.390;2023-07-31T11:42:39;98054.09;;;24.67;46.88
53719;BME280;39616;48.872;9.390;2023-07-31T11:45:10;98051.34;;;24.45;47.63
53719;BME280;39616;48.872;9.390;2023-07-31T11:47:40;98032.31;;;24.54;48.69
53719;BME280;39616;48.872;9.390;2023-07-31T11:50:11;98041.41;;;24.51;48.74
53719;BME280;39616;48.872;9.390;2023-07-31T11:52:44;98035.50;;;24.60;47.25
53719;BME280;39616;48.872;9.390;2023-07-31T11:55:16;98032.28;;;24.37;47.85
53719;BME280;39616;48.872;9.390;2023-07-31T11:57:47;98032.25;;;24.15;48.79
53719;BME280;39616;48.872;9.390;2023-07-31T12:00:18;98026.72;;;24.11;48.70
53719;BME280;39616;48.872;9.390;2023-07-31T12:02:50;98025.50;;;23.91;50.31
53719;BME280;39616;48.872;9.390;2023-07-31T12:05:22;98031.88;;;24.09;49.50
53719;BME280;39616;48.872;9.390;2023-07-31T12:07:54;98023.53;;;23.92;49.56
53719;BME280;39616;48.872;9.390;2023-07-31T12:10:31;98019.22;;;24.23;48.14
53719;BME280;39616;48.872;9.390;2023-07-31T12:13:04;98011.31;;;24.28;50.13
53719;BME280;39616;48.872;9.390;2023-07-31T12:15:40;98007.00;;;24.49;48.62
53719;BME280;39616;48.872;9.390;2023-07-31T12:18:16;98012.13;;;24.61;48.05
53719;BME280;39616;48.872;9.390;2023-07-31T12:20:54;98001.81;;;24.29;48.24
53719;BME280;39616;48.872;9.390;2023-07-31T12:23:31;98000.63;;;24.16;49.48
53719;BME280;39616;48.872;9.390;2023-07-31T12:26:12;97995.91;;;24.42;47.91
53719;BME280;39616;48.872;9.390;2023-07-31T12:28:47;97997.88;;;24.30;47.77
53719;BME280;39616;48.872;9.390;2023-07-31T12:31:20;97989.91;;;24.04;48.46
53719;BME280;39616;48.872;9.390;2023-07-31T12:33:51;98002.47;;;23.62;49.92
53719;BME280;39616;48.872;9.390;2023-07-31T12:36:24;97998.22;;;24.00;51.13
53719;BME280;39616;48.872;9.390;2023-07-31T12:38:54;97990.72;;;24.01;50.14
53719;BME280;39616;48.872;9.390;2023-07-31T12:41:26;97991.84;;;23.75;50.25
53719;BME280;39616;48.872;9.390;2023-07-31T12:43:56;97986.75;;;24.02;51.27
53719;BME280;39616;48.872;9.390;2023-07-31T12:46:27;97977.28;;;24.31;49.06
53719;BME280;39616;48.872;9.390;2023-07-31T12:48:57;97965.00;;;24.32;49.41
53719;BME280;39616;48.872;9.390;2023-07-31T12:51:27;97964.22;;;24.57;49.11
53719;BME280;39616;48.872;9.390;2023-07-31T12:53:58;97960.28;;;24.44;50.04
53719;BME280;39616;48.872;9.390;2023-07-31T12:56:28;97952.38;;;24.42;49.03
53719;BME280;39616;48.872;9.390;2023-07-31T12:58:59;97956.72;;;24.43;50.06
53719;BME280;39616;48.872;9.390;2023-07-31T13:01:29;97947.19;;;24.48;50.11
53719;BME280;39616;48.872;9.390;2023-07-31T13:03:59;97954.31;;;24.38;49.81
53719;BME280;39616;48.872;9.390;2023-07-31T13:06:29;97948.38;;;24.29;50.09
53719;BME280;39616;48.872;9.390;2023-07-31T13:09:00;97950.34;;;23.89;51.24
53719;BME280;39616;48.872;9.390;2023-07-31T13:11:30;97940.84;;;24.11;50.58
53719;BME280;39616;48.872;9.390;2023-07-31T13:14:01;97942.03;;;23.96;50.37
53719;BME280;39616;48.872;9.390;2023-07-31T13:16:31;97934.53;;;24.07;50.11
53719;BME280;39616;48.872;9.390;2023-07-31T13:19:01;97930.16;;;23.71;51.17
53719;BME280;39616;48.872;9.390;2023-07-31T13:21:32;97934.53;;;23.75;51.62
53719;BME280;39616;48.872;9.390;2023-07-31T13:24:03;97940.38;;;23.63;52.20
53719;BME280;39616;48.872;9.390;2023-07-31T13:26:34;97933.22;;;23.44;50.15